sensor_id;sensor_type;location;lat;lon;timestamp;pressure;altitude;pressure_sealevel;temperature;humidity
2405;BME280;1213;43.206;27.922;2023-08-30T00:00:38;100231.81;;;26.63;100.00
2405;BME280;1213;43.206;27.922;2023-08-30T00:03:03;100230.59;;;26.59;100.00
2405;BME280;1213;43.206;27.922;2023-08-30T00:05:29;100228.56;;;26.54;100.00
2405;BME280;1213;43.206;27.922;2023-08-30T00:07:54;100229.81;;;26.51;100.00
2405;BME280;1213;43.206;27.922;2023-08-30T00:10:20;100228.38;;;26.49;100.00
2405;BME280;1213;43.206;27.922;2023-08-30T00:12:45;100231.09;;;26.49;100.00
2405;BME280;1213;43.206;27.922;2023-08-30T00:15:11;100232.72;;;26.50;100.00
2405;BME280;1213;43.206;27.922;2023-08-30T00:17:36;100236.25;;;26.50;100.00
2405;BME280;1213;43.206;27.922;2023-08-30T00:20:02;100226.75;;;26.48;100.00
2405;BME280;1213;43.206;27.922;2023-08-30T00:22:28;100233.19;;;26.47;100.00
2405;BME280;1213;43.206;27.922;2023-08-30T00:24:53;100232.56;;;26.45;100.00
2405;BME280;1213;43.206;27.922;2023-08-30T00:27:19;100226.97;;;26.46;100.00
2405;BME280;1213;43.206;27.922;2023-08-30T00:29:49;100223.22;;;26.47;100.00
2405;BME280;1213;43.206;27.922;2023-08-30T00:32:14;100215.75;;;26.49;100.00
2405;BME280;1213;43.206;27.922;2023-08-30T00:34:40;100219.66;;;26.53;100.00
2405;BME280;1213;43.206;27.922;2023-08-30T00:37:06;100217.34;;;26.57;100.00
2405;BME280;1213;43.206;27.922;2023-08-30T00:39:31;100217.34;;;26.57;100.00
2405;BME280;1213;43.206;27.922;2023-08-30T00:41:57;100211.34;;;26.55;100.00
2405;BME280;1213;43.206;27.922;2023-08-30T00:44:22;100214.47;;;26.52;100.00
2405;BME280;1213;43.206;27.922;2023-08-30T00:46:48;100222.34;;;26.53;100.00
2405;BME280;1213;43.206;27.922;2023-08-30T00:49:13;100213.88;;;26.50;100.00
2405;BME280;1213;43.206;27.922;2023-08-30T00:51:39;100218.06;;;26.46;100.00
2405;BME280;1213;43.206;27.922;2023-08-30T00:54:05;100219.31;;;26.43;100.00
2405;BME280;1213;43.206;27.922;2023-08-30T00:56:32;100225.75;;;26.42;100.00
2405;BME280;1213;43.206;27.922;2023-08-30T00:58:58;100216.25;;;26.40;100.00
2405;BME280;1213;43.206;27.922;2023-08-30T01:01:24;100215.81;;;26.36;100.00
2405;BME280;1213;43.206;27.922;2023-08-30T01:03:49;100215.81;;;26.36;100.00
2405;BME280;1213;43.206;27.922;2023-08-30T01:06:15;100213.34;;;26.35;100.00
2405;BME280;1213;43.206;27.922;2023-08-30T01:08:43;100207.94;;;26.35;100.00
2405;BME280;1213;43.206;27.922;2023-08-30T01:13:53;100211.25;;;26.37;100.00
2405;BME280;1213;43.206;27.922;2023-08-30T01:16:21;100209.81;;;26.34;100.00
2405;BME280;1213;43.206;27.922;2023-08-30T01:18:52;100211.09;;;26.32;100.00
2405;BME280;1213;43.206;27.922;2023-08-30T01:24:23;100217.94;;;26.27;100.00
2405;BME280;1213;43.206;27.922;2023-08-30T01:27:17;100218.63;;;26.23;100.00
2405;BME280;1213;43.206;27.922;2023-08-30T01:29:44;100219.44;;;26.23;100.00
2405;BME280;1213;43.206;27.922;2023-08-30T01:32:11;100223.56;;;26.26;100.00
2405;BME280;1213;43.206;27.922;2023-08-30T01:34:39;100221.69;;;26.26;100.00
2405;BME280;1213;43.206;27.922;2023-08-30T01:37:06;100224.59;;;26.25;100.00
2405;BME280;1213;43.206;27.922;2023-08-30T01:39:33;100225.88;;;26.22;100.00
2405;BME280;1213;43.206;27.922;2023-08-30T01:42:00;100226.28;;;26.19;100.00
2405;BME280;1213;43.206;27.922;2023-08-30T01:44:30;100222.16;;;26.17;100.00
2405;BME280;1213;43.206;27.922;2023-08-30T01:46:57;100230.47;;;26.15;100.00
2405;BME280;1213;43.206;27.922;2023-08-30T01:49:24;100230.88;;;26.12;100.00
2405;BME280;1213;43.206;27.922;2023-08-30T01:51:51;100223.84;;;26.11;100.00
2405;BME280;1213;43.206;27.922;2023-08-30T01:54:18;100220.72;;;26.14;100.00
2405;BME280;1213;43.206;27.922;2023-08-30T01:56:47;100223.41;;;26.14;100.00
2405;BME280;1213;43.206;27.922;2023-08-30T01:59:13;100215.97;;;26.16;100.00
2405;BME280;1213;43.206;27.922;2023-08-30T02:01:38;100214.09;;;26.17;100.00
2405;BME280;1213;43.206;27.922;2023-08-30T02:04:04;100212.44;;;26.16;100.00
2405;BME280;1213;43.206;27.922;2023-08-30T02:06:38;100222.41;;;26.15;100.00
2405;BME280;1213;43.206;27.922;2023-08-30T02:09:17;100221.38;;;26.10;100.00
2405;BME280;1213;43.206;27.922;2023-08-30T02:11:45;100218.28;;;26.06;100.00
2405;BME280;1213;43.206;27.922;2023-08-30T02:14:13;100217.28;;;26.07;100.00
2405;BME280;1213;43.206;27.922;2023-08-30T02:16:43;100217.47;;;26.06;100.00
2405;BME280;1213;43.206;27.922;2023-08-30T02:19:11;100221.44;;;26.03;100.00
2405;BME280;1213;43.206;27.922;2023-08-30T02:21:39;100218.13;;;26.01;100.00
2405;BME280;1213;43.206;27.922;2023-08-30T02:24:05;100215.84;;;25.98;100.00
2405;BME280;1213;43.206;27.922;2023-08-30T02:26:31;100215.25;;;25.96;100.00
2405;BME280;1213;43.206;27.922;2023-08-30T02:28:56;100213.00;;;25.93;100.00
2405;BME280;1213;43.206;27.922;2023-08-30T02:31:22;100209.91;;;25.89;100.00
2405;BME280;1213;43.206;27.922;2023-08-30T02:33:47;100214.47;;;25.89;100.00
2405;BME280;1213;43.206;27.922;2023-08-30T02:36:12;100204.97;;;25.86;100.00
2405;BME280;1213;43.206;27.922;2023-08-30T02:38:38;100207.66;;;25.86;100.00
2405;BME280;1213;43.206;27.922;2023-08-30T02:41:03;100203.31;;;25.85;100.00
2405;BME280;1213;43.206;27.922;2023-08-30T02:43:29;100206.19;;;25.84;100.00
2405;BME280;1213;43.206;27.922;2023-08-30T02:45:54;100204.53;;;25.83;100.00
2405;BME280;1213;43.206;27.922;2023-08-30T02:48:20;100206.41;;;25.82;100.00
2405;BME280;1213;43.206;27.922;2023-08-30T02:50:45;100218.22;;;25.81;100.00
2405;BME280;1213;43.206;27.922;2023-08-30T02:53:11;100208.28;;;25.82;100.00
2405;BME280;1213;43.206;27.922;2023-08-30T02:55:36;100215.31;;;25.83;100.00
2405;BME280;1213;43.206;27.922;2023-08-30T02:58:02;100214.50;;;25.82;100.00
2405;BME280;1213;43.206;27.922;2023-08-30T03:00:27;100209.94;;;25.83;100.00
2405;BME280;1213;43.206;27.922;2023-08-30T03:02:53;100213.88;;;25.80;100.00
2405;BME280;1213;43.206;27.922;2023-08-30T03:05:19;100213.06;;;25.80;100.00
2405;BME280;1213;43.206;27.922;2023-08-30T03:07:44;100209.78;;;25.78;100.00
2405;BME280;1213;43.206;27.922;2023-08-30T03:10:11;100212.03;;;25.74;100.00
2405;BME280;1213;43.206;27.922;2023-08-30T03:12:37;100211.44;;;25.72;100.00
2405;BME280;1213;43.206;27.922;2023-08-30T03:15:03;100207.28;;;25.69;100.00
2405;BME280;1213;43.206;27.922;2023-08-30T03:17:29;100204.78;;;25.68;100.00
2405;BME280;1213;43.206;27.922;2023-08-30T03:19:55;100203.97;;;25.67;100.00
2405;BME280;1213;43.206;27.922;2023-08-30T03:22:20;100196.34;;;25.64;100.00
2405;BME280;1213;43.206;27.922;2023-08-30T03:24:46;100200.06;;;25.63;100.00
2405;BME280;1213;43.206;27.922;2023-08-30T03:27:12;100210.00;;;25.63;100.00
2405;BME280;1213;43.206;27.922;2023-08-30T03:29:38;100208.38;;;25.62;100.00
2405;BME280;1213;43.206;27.922;2023-08-30T03:32:03;100212.69;;;25.63;100.00
2405;BME280;1213;43.206;27.922;2023-08-30T03:34:29;100217.44;;;25.61;100.00
2405;BME280;1213;43.206;27.922;2023-08-30T03:36:54;100222.84;;;25.61;100.00
2405;BME280;1213;43.206;27.922;2023-08-30T03:39:20;100214.75;;;25.61;100.00
2405;BME280;1213;43.206;27.922;2023-08-30T03:41:46;100218.91;;;25.63;100.00
2405;BME280;1213;43.206;27.922;2023-08-30T03:44:12;100215.19;;;25.64;100.00
2405;BME280;1213;43.206;27.922;2023-08-30T03:46:37;100224.91;;;25.65;100.00
2405;BME280;1213;43.206;27.922;2023-08-30T03:49:03;100217.44;;;25.67;100.00
2405;BME280;1213;43.206;27.922;2023-08-30T03:51:29;100222.41;;;25.70;100.00
2405;BME280;1213;43.206;27.922;2023-08-30T03:53:54;100224.91;;;25.72;100.00
2405;BME280;1213;43.206;27.922;2023-08-30T03:56:21;100220.53;;;25.78;100.00
2405;BME280;1213;43.206;27.922;2023-08-30T03:58:47;100228.16;;;25.81;100.00
2405;BME280;1213;43.206;27.922;2023-08-30T04:01:12;100219.88;;;25.82;100.00
2405;BME280;1213;43.206;27.922;2023-08-30T04:03:38;100225.84;;;25.84;100.00
2405;BME280;1213;43.206;27.922;2023-08-30T04:06:03;100236.44;;;25.86;100.00
2405;BME280;1213;43.206;27.922;2023-08-30T04:08:30;100229.78;;;25.88;100.00
2405;BME280;1213;43.206;27.922;2023-08-30T04:10:55;100230.63;;;25.89;100.00
2405;BME280;1213;43.206;27.922;2023-08-30T04:13:21;100229.34;;;25.91;100.00
2405;BME280;1213;43.206;27.922;2023-08-30T04:15:47;100233.50;;;25.94;100.00
2405;BME280;1213;43.206;27.922;2023-08-30T04:18:12;100219.00;;;25.95;100.00
2405;BME280;1213;43.206;27.922;2023-08-30T04:20:46;100226.84;;;25.96;100.00
2405;BME280;1213;43.206;27.922;2023-08-30T04:23:13;100233.06;;;25.97;100.00
2405;BME280;1213;43.206;27.922;2023-08-30T04:25:38;100230.78;;;26.00;100.00
2405;BME280;1213;43.206;27.922;2023-08-30T04:28:04;100240.88;;;26.05;100.00
2405;BME280;1213;43.206;27.922;2023-08-30T04:30:29;100242.44;;;26.19;100.00
2405;BME280;1213;43.206;27.922;2023-08-30T04:32:55;100239.50;;;26.27;100.00
2405;BME280;1213;43.206;27.922;2023-08-30T04:35:20;100249.84;;;26.31;100.00
2405;BME280;1213;43.206;27.922;2023-08-30T04:37:47;100248.13;;;26.36;100.00
2405;BME280;1213;43.206;27.922;2023-08-30T04:40:13;100248.94;;;26.43;100.00
2405;BME280;1213;43.206;27.922;2023-08-30T04:42:39;100252.88;;;26.47;100.00
2405;BME280;1213;43.206;27.922;2023-08-30T04:45:06;100254.75;;;26.47;100.00
2405;BME280;1213;43.206;27.922;2023-08-30T04:47:32;100260.13;;;26.47;100.00
2405;BME280;1213;43.206;27.922;2023-08-30T04:49:58;100254.53;;;26.48;100.00
2405;BME280;1213;43.206;27.922;2023-08-30T04:52:24;100254.28;;;26.50;100.00
2405;BME280;1213;43.206;27.922;2023-08-30T04:54:49;100251.56;;;26.57;100.00
2405;BME280;1213;43.206;27.922;2023-08-30T04:57:15;100245.59;;;26.73;100.00
2405;BME280;1213;43.206;27.922;2023-08-30T04:59:41;100251.50;;;26.88;100.00
2405;BME280;1213;43.206;27.922;2023-08-30T05:02:07;100246.88;;;26.95;100.00
2405;BME280;1213;43.206;27.922;2023-08-30T05:04:32;100250.59;;;26.94;100.00
2405;BME280;1213;43.206;27.922;2023-08-30T05:06:58;100246.88;;;26.95;100.00
2405;BME280;1213;43.206;27.922;2023-08-30T05:09:23;100256.19;;;26.99;100.00
2405;BME280;1213;43.206;27.922;2023-08-30T05:11:51;100252.81;;;27.04;100.00
2405;BME280;1213;43.206;27.922;2023-08-30T05:14:16;100263.19;;;27.07;100.00
2405;BME280;1213;43.206;27.922;2023-08-30T05:16:42;100262.13;;;27.08;100.00
2405;BME280;1213;43.206;27.922;2023-08-30T05:19:07;100260.19;;;27.15;100.00
2405;BME280;1213;43.206;27.922;2023-08-30T05:21:33;100255.69;;;27.27;100.00
2405;BME280;1213;43.206;27.922;2023-08-30T05:23:58;100265.00;;;27.31;100.00
2405;BME280;1213;43.206;27.922;2023-08-30T05:26:24;100261.03;;;27.34;100.00
2405;BME280;1213;43.206;27.922;2023-08-30T05:28:49;100256.03;;;27.37;100.00
2405;BME280;1213;43.206;27.922;2023-08-30T05:31:14;100266.69;;;27.51;100.00
2405;BME280;1213;43.206;27.922;2023-08-30T05:33:40;100268.38;;;27.63;100.00
2405;BME280;1213;43.206;27.922;2023-08-30T05:36:05;100262.34;;;27.68;100.00
2405;BME280;1213;43.206;27.922;2023-08-30T05:38:31;100273.00;;;27.81;100.00
2405;BME280;1213;43.206;27.922;2023-08-30T05:40:56;100272.56;;;27.96;100.00
2405;BME280;1213;43.206;27.922;2023-08-30T05:43:21;100271.06;;;28.00;100.00
2405;BME280;1213;43.206;27.922;2023-08-30T05:45:47;100270.31;;;27.93;100.00
2405;BME280;1213;43.206;27.922;2023-08-30T05:48:12;100274.22;;;27.97;100.00
2405;BME280;1213;43.206;27.922;2023-08-30T05:50:38;100265.97;;;28.22;100.00
2405;BME280;1213;43.206;27.922;2023-08-30T05:53:04;100261.59;;;28.39;100.00
2405;BME280;1213;43.206;27.922;2023-08-30T05:55:30;100268.19;;;28.43;100.00
2405;BME280;1213;43.206;27.922;2023-08-30T05:57:55;100275.19;;;28.33;100.00
2405;BME280;1213;43.206;27.922;2023-08-30T06:00:21;100279.41;;;28.29;100.00
2405;BME280;1213;43.206;27.922;2023-08-30T06:02:47;100267.72;;;28.35;100.00
2405;BME280;1213;43.206;27.922;2023-08-30T06:05:12;100272.16;;;28.41;100.00
2405;BME280;1213;43.206;27.922;2023-08-30T06:07:38;100275.97;;;28.52;100.00
2405;BME280;1213;43.206;27.922;2023-08-30T06:10:04;100288.38;;;28.41;100.00
2405;BME280;1213;43.206;27.922;2023-08-30T06:12:30;100285.34;;;28.37;100.00
2405;BME280;1213;43.206;27.922;2023-08-30T06:14:55;100275.09;;;28.39;100.00
2405;BME280;1213;43.206;27.922;2023-08-30T06:17:21;100286.06;;;28.56;100.00
2405;BME280;1213;43.206;27.922;2023-08-30T06:19:47;100277.75;;;28.58;100.00
2405;BME280;1213;43.206;27.922;2023-08-30T06:22:13;100282.44;;;28.62;100.00
2405;BME280;1213;43.206;27.922;2023-08-30T06:24:38;100283.28;;;28.63;100.00
2405;BME280;1213;43.206;27.922;2023-08-30T06:27:04;100288.47;;;28.64;100.00
2405;BME280;1213;43.206;27.922;2023-08-30T06:29:29;100290.84;;;28.72;100.00
2405;BME280;1213;43.206;27.922;2023-08-30T06:31:56;100295.75;;;28.75;100.00
2405;BME280;1213;43.206;27.922;2023-08-30T06:34:21;100292.81;;;28.77;100.00
2405;BME280;1213;43.206;27.922;2023-08-30T06:36:47;100294.38;;;28.73;100.00
2405;BME280;1213;43.206;27.922;2023-08-30T06:39:13;100299.88;;;28.78;100.00
2405;BME280;1213;43.206;27.922;2023-08-30T06:41:38;100299.66;;;28.80;100.00
2405;BME280;1213;43.206;27.922;2023-08-30T06:44:04;100304.34;;;28.72;100.00
2405;BME280;1213;43.206;27.922;2023-08-30T06:46:29;100307.88;;;28.85;100.00
2405;BME280;1213;43.206;27.922;2023-08-30T06:48:55;100314.50;;;28.89;100.00
2405;BME280;1213;43.206;27.922;2023-08-30T06:51:20;100309.31;;;28.87;100.00
2405;BME280;1213;43.206;27.922;2023-08-30T06:53:46;100309.91;;;28.89;100.00
2405;BME280;1213;43.206;27.922;2023-08-30T06:56:12;100307.34;;;29.06;100.00
2405;BME280;1213;43.206;27.922;2023-08-30T06:58:37;100318.06;;;29.13;100.00
2405;BME280;1213;43.206;27.922;2023-08-30T07:01:03;100311.94;;;29.29;100.00
2405;BME280;1213;43.206;27.922;2023-08-30T07:03:28;100314.41;;;29.42;100.00
2405;BME280;1213;43.206;27.922;2023-08-30T07:05:54;100319.25;;;29.40;100.00
2405;BME280;1213;43.206;27.922;2023-08-30T07:08:20;100319.84;;;29.42;100.00
2405;BME280;1213;43.206;27.922;2023-08-30T07:10:45;100318.53;;;29.45;100.00
2405;BME280;1213;43.206;27.922;2023-08-30T07:13:10;100323.50;;;29.48;100.00
2405;BME280;1213;43.206;27.922;2023-08-30T07:15:41;100321.59;;;29.48;100.00
2405;BME280;1213;43.206;27.922;2023-08-30T07:18:07;100320.41;;;29.44;100.00
2405;BME280;1213;43.206;27.922;2023-08-30T07:20:33;100321.84;;;29.59;100.00
2405;BME280;1213;43.206;27.922;2023-08-30T07:23:00;100323.22;;;29.73;100.00
2405;BME280;1213;43.206;27.922;2023-08-30T07:25:26;100324.63;;;29.75;100.00
2405;BME280;1213;43.206;27.922;2023-08-30T07:27:51;100323.56;;;29.76;100.00
2405;BME280;1213;43.206;27.922;2023-08-30T07:30:17;100321.59;;;29.72;100.00
2405;BME280;1213;43.206;27.922;2023-08-30T07:32:42;100327.09;;;29.77;100.00
2405;BME280;1213;43.206;27.922;2023-08-30T07:35:08;100327.69;;;29.79;100.00
2405;BME280;1213;43.206;27.922;2023-08-30T07:37:35;100325.44;;;29.88;100.00
2405;BME280;1213;43.206;27.922;2023-08-30T07:40:01;100329.41;;;30.08;100.00
2405;BME280;1213;43.206;27.922;2023-08-30T07:42:29;100331.28;;;30.08;100.00
2405;BME280;1213;43.206;27.922;2023-08-30T07:44:55;100330.22;;;29.97;100.00
2405;BME280;1213;43.206;27.922;2023-08-30T07:47:20;100335.06;;;29.95;100.00
2405;BME280;1213;43.206;27.922;2023-08-30T07:49:46;100329.53;;;29.90;100.00
2405;BME280;1213;43.206;27.922;2023-08-30T07:52:11;100334.63;;;29.87;100.00
2405;BME280;1213;43.206;27.922;2023-08-30T07:54:39;100332.47;;;30.00;100.00
2405;BME280;1213;43.206;27.922;2023-08-30T07:57:05;100333.78;;;30.09;100.00
2405;BME280;1213;43.206;27.922;2023-08-30T07:59:33;100335.41;;;30.10;100.00
2405;BME280;1213;43.206;27.922;2023-08-30T08:01:59;100332.00;;;30.03;100.00
2405;BME280;1213;43.206;27.922;2023-08-30T08:04:24;100333.03;;;30.14;100.00
2405;BME280;1213;43.206;27.922;2023-08-30T08:06:49;100331.16;;;30.15;100.00
2405;BME280;1213;43.206;27.922;2023-08-30T08:09:15;100329.66;;;29.95;100.00
2405;BME280;1213;43.206;27.922;2023-08-30T08:11:41;100320.94;;;29.93;100.00
2405;BME280;1213;43.206;27.922;2023-08-30T08:14:09;100320.41;;;30.20;100.00
2405;BME280;1213;43.206;27.922;2023-08-30T08:16:35;100319.44;;;30.54;100.00
2405;BME280;1213;43.206;27.922;2023-08-30T08:19:01;100323.25;;;30.42;100.00
2405;BME280;1213;43.206;27.922;2023-08-30T08:21:26;100323.50;;;30.40;100.00
2405;BME280;1213;43.206;27.922;2023-08-30T08:23:52;100319.69;;;30.24;100.00
2405;BME280;1213;43.206;27.922;2023-08-30T08:26:17;100315.53;;;30.33;100.00
2405;BME280;1213;43.206;27.922;2023-08-30T08:28:44;100309.88;;;30.52;100.00
2405;BME280;1213;43.206;27.922;2023-08-30T08:31:09;100316.78;;;30.59;100.00
2405;BME280;1213;43.206;27.922;2023-08-30T08:33:35;100308.97;;;30.46;100.00
2405;BME280;1213;43.206;27.922;2023-08-30T08:36:00;100317.25;;;30.39;100.00
2405;BME280;1213;43.206;27.922;2023-08-30T08:38:26;100319.16;;;30.39;100.00
2405;BME280;1213;43.206;27.922;2023-08-30T08:41:02;100321.88;;;30.56;100.00
2405;BME280;1213;43.206;27.922;2023-08-30T08:43:29;100322.00;;;30.61;100.00
2405;BME280;1213;43.206;27.922;2023-08-30T08:45:57;100319.38;;;30.83;100.00
2405;BME280;1213;43.206;27.922;2023-08-30T08:48:26;100320.78;;;31.02;100.00
2405;BME280;1213;43.206;27.922;2023-08-30T08:50:54;100315.09;;;31.04;100.00
2405;BME280;1213;43.206;27.922;2023-08-30T08:53:20;100310.66;;;30.81;100.00
2405;BME280;1213;43.206;27.922;2023-08-30T08:55:46;100320.13;;;30.78;100.00
2405;BME280;1213;43.206;27.922;2023-08-30T08:58:12;100316.19;;;30.69;100.00
2405;BME280;1213;43.206;27.922;2023-08-30T09:00:41;100308.94;;;30.75;100.00
2405;BME280;1213;43.206;27.922;2023-08-30T09:03:08;100309.59;;;30.82;100.00
2405;BME280;1213;43.206;27.922;2023-08-30T09:05:35;100314.38;;;30.75;100.00
2405;BME280;1213;43.206;27.922;2023-08-30T09:08:02;100304.50;;;30.85;100.00
2405;BME280;1213;43.206;27.922;2023-08-30T09:10:32;100311.81;;;31.02;100.00
2405;BME280;1213;43.206;27.922;2023-08-30T09:12:58;100314.28;;;31.03;100.00
2405;BME280;1213;43.206;27.922;2023-08-30T09:15:30;100319.16;;;31.01;100.00
2405;BME280;1213;43.206;27.922;2023-08-30T09:17:56;100313.88;;;30.94;100.00
2405;BME280;1213;43.206;27.922;2023-08-30T09:20:22;100314.88;;;30.88;100.00
2405;BME280;1213;43.206;27.922;2023-08-30T09:22:47;100310.41;;;30.82;100.00
2405;BME280;1213;43.206;27.922;2023-08-30T09:25:24;100307.63;;;30.94;100.00
2405;BME280;1213;43.206;27.922;2023-08-30T09:27:59;100310.44;;;30.99;100.00
2405;BME280;1213;43.206;27.922;2023-08-30T09:30:24;100308.84;;;31.03;100.00
2405;BME280;1213;43.206;27.922;2023-08-30T09:32:50;100310.03;;;31.07;100.00
2405;BME280;1213;43.206;27.922;2023-08-30T09:35:16;100305.56;;;31.18;100.00
2405;BME280;1213;43.206;27.922;2023-08-30T09:37:44;100305.03;;;31.21;100.00
2405;BME280;1213;43.206;27.922;2023-08-30T09:40:10;100307.63;;;31.28;100.00
2405;BME280;1213;43.206;27.922;2023-08-30T09:42:40;100296.91;;;31.38;100.00
2405;BME280;1213;43.206;27.922;2023-08-30T09:45:17;100303.16;;;31.38;100.00
2405;BME280;1213;43.206;27.922;2023-08-30T09:47:46;100292.31;;;31.38;100.00
2405;BME280;1213;43.206;27.922;2023-08-30T09:50:12;100302.59;;;31.36;100.00
2405;BME280;1213;43.206;27.922;2023-08-30T09:52:42;100297.09;;;31.31;100.00
2405;BME280;1213;43.206;27.922;2023-08-30T09:55:08;100308.25;;;31.35;100.00
2405;BME280;1213;43.206;27.922;2023-08-30T09:57:35;100305.81;;;31.16;100.00
2405;BME280;1213;43.206;27.922;2023-08-30T10:00:01;100306.56;;;31.29;100.00
2405;BME280;1213;43.206;27.922;2023-08-30T10:02:30;100303.47;;;31.42;100.00
2405;BME280;1213;43.206;27.922;2023-08-30T10:04:56;100301.28;;;31.61;100.00
2405;BME280;1213;43.206;27.922;2023-08-30T10:07:23;100302.22;;;31.71;100.00
2405;BME280;1213;43.206;27.922;2023-08-30T10:09:50;100299.84;;;31.75;100.00
2405;BME280;1213;43.206;27.922;2023-08-30T10:12:20;100296.34;;;31.58;100.00
2405;BME280;1213;43.206;27.922;2023-08-30T10:14:45;100302.28;;;31.55;100.00
2405;BME280;1213;43.206;27.922;2023-08-30T10:17:12;100295.47;;;31.52;100.00
2405;BME280;1213;43.206;27.922;2023-08-30T10:19:41;100306.72;;;31.61;100.00
2405;BME280;1213;43.206;27.922;2023-08-30T10:22:08;100304.69;;;31.73;100.00
2405;BME280;1213;43.206;27.922;2023-08-30T10:24:51;100294.25;;;31.82;100.00
2405;BME280;1213;43.206;27.922;2023-08-30T10:27:19;100300.56;;;31.87;100.00
2405;BME280;1213;43.206;27.922;2023-08-30T10:29:47;100293.22;;;31.88;100.00
2405;BME280;1213;43.206;27.922;2023-08-30T10:32:19;100293.84;;;31.95;100.00
2405;BME280;1213;43.206;27.922;2023-08-30T10:34:47;100287.13;;;32.02;100.00
2405;BME280;1213;43.206;27.922;2023-08-30T10:37:14;100285.66;;;32.17;100.00
2405;BME280;1213;43.206;27.922;2023-08-30T10:39:41;100285.97;;;32.47;100.00
2405;BME280;1213;43.206;27.922;2023-08-30T10:44:33;100291.94;;;32.44;100.00
2405;BME280;1213;43.206;27.922;2023-08-30T10:47:01;100292.91;;;32.33;100.00
2405;BME280;1213;43.206;27.922;2023-08-30T10:49:27;100292.97;;;32.38;100.00
2405;BME280;1213;43.206;27.922;2023-08-30T10:51:57;100284.59;;;32.45;100.00
2405;BME280;1213;43.206;27.922;2023-08-30T10:54:23;100285.81;;;32.59;100.00
2405;BME280;1213;43.206;27.922;2023-08-30T10:59:18;100287.06;;;33.10;100.00
2405;BME280;1213;43.206;27.922;2023-08-30T11:01:46;100274.81;;;33.13;100.00
2405;BME280;1213;43.206;27.922;2023-08-30T11:04:12;100273.75;;;33.66;100.00
2405;BME280;1213;43.206;27.922;2023-08-30T11:06:40;100274.44;;;34.14;100.00
2405;BME280;1213;43.206;27.922;2023-08-30T11:09:07;100270.97;;;34.90;100.00
2405;BME280;1213;43.206;27.922;2023-08-30T11:11:34;100261.88;;;35.46;100.00
2405;BME280;1213;43.206;27.922;2023-08-30T11:14:08;100259.38;;;35.54;100.00
2405;BME280;1213;43.206;27.922;2023-08-30T11:16:35;100274.16;;;35.38;100.00
2405;BME280;1213;43.206;27.922;2023-08-30T11:19:04;100264.97;;;34.93;100.00
2405;BME280;1213;43.206;27.922;2023-08-30T11:21:30;100269.91;;;34.40;100.00
2405;BME280;1213;43.206;27.922;2023-08-30T11:23:56;100267.75;;;33.70;100.00
2405;BME280;1213;43.206;27.922;2023-08-30T11:26:22;100268.00;;;33.58;100.00
2405;BME280;1213;43.206;27.922;2023-08-30T11:28:47;100261.47;;;33.69;100.00
2405;BME280;1213;43.206;27.922;2023-08-30T11:31:20;100259.06;;;33.78;100.00
2405;BME280;1213;43.206;27.922;2023-08-30T11:33:51;100262.47;;;33.43;100.00
2405;BME280;1213;43.206;27.922;2023-08-30T11:36:19;100256.38;;;33.25;100.00
2405;BME280;1213;43.206;27.922;2023-08-30T11:38:45;100256.03;;;33.11;100.00
2405;BME280;1213;43.206;27.922;2023-08-30T11:41:12;100254.84;;;32.97;100.00
2405;BME280;1213;43.206;27.922;2023-08-30T11:43:38;100250.84;;;32.78;100.00
2405;BME280;1213;43.206;27.922;2023-08-30T11:46:03;100249.44;;;32.70;100.00
2405;BME280;1213;43.206;27.922;2023-08-30T11:48:29;100250.72;;;32.57;100.00
2405;BME280;1213;43.206;27.922;2023-08-30T11:50:55;100240.03;;;32.51;100.00
2405;BME280;1213;43.206;27.922;2023-08-30T11:53:20;100243.25;;;32.48;100.00
2405;BME280;1213;43.206;27.922;2023-08-30T11:55:46;100240.28;;;32.49;100.00
2405;BME280;1213;43.206;27.922;2023-08-30T11:58:12;100235.59;;;32.40;100.00
2405;BME280;1213;43.206;27.922;2023-08-30T12:00:38;100230.69;;;32.42;100.00
2405;BME280;1213;43.206;27.922;2023-08-30T12:03:05;100229.66;;;32.43;100.00
2405;BME280;1213;43.206;27.922;2023-08-30T12:05:31;100228.78;;;32.37;100.00
2405;BME280;1213;43.206;27.922;2023-08-30T12:08:00;100222.69;;;32.30;100.00
2405;BME280;1213;43.206;27.922;2023-08-30T12:10:28;100227.03;;;32.31;100.00
2405;BME280;1213;43.206;27.922;2023-08-30T12:12:54;100220.88;;;32.36;100.00
2405;BME280;1213;43.206;27.922;2023-08-30T12:15:22;100223.06;;;32.39;100.00
2405;BME280;1213;43.206;27.922;2023-08-30T12:17:49;100214.69;;;32.45;100.00
2405;BME280;1213;43.206;27.922;2023-08-30T12:20:16;100220.91;;;32.41;100.00
2405;BME280;1213;43.206;27.922;2023-08-30T12:22:42;100205.19;;;32.48;100.00
2405;BME280;1213;43.206;27.922;2023-08-30T12:27:43;100212.06;;;32.93;100.00
2405;BME280;1213;43.206;27.922;2023-08-30T12:30:09;100208.44;;;32.82;100.00
2405;BME280;1213;43.206;27.922;2023-08-30T12:32:35;100206.97;;;32.69;100.00
2405;BME280;1213;43.206;27.922;2023-08-30T12:35:00;100206.59;;;32.55;100.00
2405;BME280;1213;43.206;27.922;2023-08-30T12:37:25;100193.53;;;32.52;100.00
2405;BME280;1213;43.206;27.922;2023-08-30T12:39:51;100190.84;;;32.57;100.00
2405;BME280;1213;43.206;27.922;2023-08-30T12:42:16;100190.81;;;32.52;100.00
2405;BME280;1213;43.206;27.922;2023-08-30T12:44:42;100195.38;;;32.47;100.00
2405;BME280;1213;43.206;27.922;2023-08-30T12:47:07;100199.72;;;32.43;100.00
2405;BME280;1213;43.206;27.922;2023-08-30T12:49:33;100198.59;;;32.39;100.00
2405;BME280;1213;43.206;27.922;2023-08-30T12:51:58;100202.34;;;32.33;100.00
2405;BME280;1213;43.206;27.922;2023-08-30T12:54:23;100203.59;;;32.25;100.00
2405;BME280;1213;43.206;27.922;2023-08-30T12:56:49;100198.69;;;32.22;100.00
2405;BME280;1213;43.206;27.922;2023-08-30T12:59:14;100201.34;;;32.17;100.00